Time;durP1;ratioP1;P1;durP2;ratioP2;P2;SDS_P1;SDS_P2;PMS_P1;PMS_P2;Temp;Humidity;BMP_temperature;BMP_pressure;BME280_temperature;BME280_humidity;BME280_pressure;Samples;Min_cycle;Max_cycle;Signal;HPM_P1;HPM_P2
2022/07/25 00:00:40;;;;;;;349.65;193.27;;;;;;;;;;5004314;28;20228;-65
2022/07/25 00:03:06;;;;;;;383.80;208.38;;;;;;;;;;5007594;28;20290;-65
2022/07/25 00:05:32;;;;;;;402.08;216.98;;;;;;;;;;5007562;28;20229;-64
2022/07/25 00:07:58;;;;;;;432.27;235.35;;;;;;;;;;5004723;28;20570;-66
2022/07/25 00:10:24;;;;;;;377.92;210.48;;;;;;;;;;5003766;28;20177;-66
2022/07/25 00:12:50;;;;;;;375.95;217.38;;;;;;;;;;5005748;28;20216;-65
2022/07/25 00:15:16;;;;;;;444.55;246.30;;;;;;;;;;4998526;28;20224;-66
2022/07/25 00:17:42;;;;;;;398.30;226.40;;;;;;;;;;5000016;28;20245;-65
2022/07/25 00:20:08;;;;;;;397.65;224.00;;;;;;;;;;5000221;28;20236;-65
2022/07/25 00:22:34;;;;;;;370.98;210.57;;;;;;;;;;5005337;28;20204;-66
2022/07/25 00:25:00;;;;;;;409.60;228.35;;;;;;;;;;4999938;28;20221;-66
2022/07/25 00:27:26;;;;;;;378.55;205.80;;;;;;;;;;5010210;28;20286;-66
2022/07/25 00:29:52;;;;;;;394.25;218.00;;;;;;;;;;5004342;28;20228;-65
2022/07/25 00:32:18;;;;;;;390.65;211.55;;;;;;;;;;5002222;28;20224;-66
2022/07/25 00:34:44;;;;;;;386.65;215.93;;;;;;;;;;5003943;28;20189;-65
2022/07/25 00:37:10;;;;;;;383.55;213.38;;;;;;;;;;5000465;28;20338;-66
2022/07/25 00:39:36;;;;;;;356.00;199.85;;;;;;;;;;5007895;28;20220;-65
2022/07/25 00:42:02;;;;;;;411.95;225.48;;;;;;;;;;4999192;28;20220;-66
2022/07/25 00:44:30;;;;;;;370.80;202.98;;;;;;;;;;5002251;28;20220;-65
2022/07/25 00:46:56;;;;;;;396.83;217.15;;;;;;;;;;5001052;28;20639;-65
2022/07/25 00:49:22;;;;;;;383.63;209.90;;;;;;;;;;5006117;28;20181;-65
2022/07/25 00:51:48;;;;;;;379.70;208.25;;;;;;;;;;5003785;28;20220;-65
2022/07/25 00:54:15;;;;;;;416.13;223.45;;;;;;;;;;5003255;28;20221;-65
2022/07/25 00:56:41;;;;;;;349.23;192.55;;;;;;;;;;5000563;28;20232;-65
2022/07/25 00:59:07;;;;;;;374.67;200.23;;;;;;;;;;5007810;28;20232;-65
2022/07/25 01:01:33;;;;;;;448.73;231.67;;;;;;;;;;5000826;28;20209;-65
2022/07/25 01:03:59;;;;;;;379.67;205.02;;;;;;;;;;5006052;28;20228;-65
2022/07/25 01:06:26;;;;;;;383.10;200.43;;;;;;;;;;5005243;28;20225;-66
2022/07/25 01:08:52;;;;;;;368.38;200.60;;;;;;;;;;5003452;28;20221;-65
2022/07/25 01:11:18;;;;;;;377.63;197.70;;;;;;;;;;5003058;28;20239;-65
2022/07/25 01:13:44;;;;;;;397.67;210.32;;;;;;;;;;5000665;28;20231;-65
2022/07/25 01:16:10;;;;;;;366.15;194.27;;;;;;;;;;5002536;28;20225;-65
2022/07/25 01:18:37;;;;;;;354.05;189.05;;;;;;;;;;5006057;28;20228;-65
2022/07/25 01:21:03;;;;;;;389.27;202.43;;;;;;;;;;5006302;28;20229;-65
2022/07/25 01:23:29;;;;;;;344.73;183.75;;;;;;;;;;5008312;28;20246;-66
2022/07/25 01:25:55;;;;;;;411.73;215.20;;;;;;;;;;5003926;28;20203;-65
2022/07/25 01:28:21;;;;;;;376.80;193.57;;;;;;;;;;5005560;28;20200;-65
2022/07/25 01:30:47;;;;;;;401.53;209.87;;;;;;;;;;4998971;28;20216;-65
2022/07/25 01:33:19;;;;;;;373.77;193.53;;;;;;;;;;5000311;28;20220;-65
2022/07/25 01:35:46;;;;;;;400.88;212.65;;;;;;;;;;5000049;28;20224;-65
2022/07/25 01:38:12;;;;;;;374.97;197.83;;;;;;;;;;4999690;28;20217;-65
2022/07/25 01:40:38;;;;;;;398.87;204.43;;;;;;;;;;5004944;28;20207;-65
2022/07/25 01:43:04;;;;;;;380.10;201.63;;;;;;;;;;5002499;28;20498;-65
2022/07/25 01:45:30;;;;;;;353.08;188.30;;;;;;;;;;5004771;28;20263;-65
2022/07/25 01:47:56;;;;;;;359.27;193.10;;;;;;;;;;5000208;28;20223;-65
2022/07/25 01:50:22;;;;;;;363.83;192.47;;;;;;;;;;5001581;28;20230;-64
2022/07/25 01:52:48;;;;;;;474.90;246.13;;;;;;;;;;4998210;28;20212;-65
2022/07/25 01:55:14;;;;;;;379.40;197.48;;;;;;;;;;5000437;28;20180;-65
2022/07/25 01:57:40;;;;;;;340.30;179.57;;;;;;;;;;4999364;28;20220;-65
2022/07/25 02:00:09;;;;;;;378.10;193.05;;;;;;;;;;5003048;28;20228;-65
2022/07/25 02:02:35;;;;;;;362.30;187.07;;;;;;;;;;5001228;28;20232;-65
2022/07/25 02:05:01;;;;;;;379.03;199.43;;;;;;;;;;5004249;28;20185;-65
2022/07/25 02:07:27;;;;;;;375.90;193.05;;;;;;;;;;5003886;28;20177;-65
2022/07/25 02:09:53;;;;;;;376.50;197.47;;;;;;;;;;5003453;28;20220;-65
2022/07/25 02:12:18;;;;;;;366.07;190.33;;;;;;;;;;4998981;28;20255;-65
2022/07/25 02:14:44;;;;;;;384.27;200.13;;;;;;;;;;5002280;28;20231;-65
2022/07/25 02:17:10;;;;;;;385.33;198.30;;;;;;;;;;5000558;28;20683;-65
2022/07/25 02:19:36;;;;;;;362.60;187.02;;;;;;;;;;5001592;28;20185;-65
2022/07/25 02:22:03;;;;;;;394.30;205.10;;;;;;;;;;4998855;28;20231;-65
2022/07/25 02:24:28;;;;;;;382.58;199.93;;;;;;;;;;5001662;28;20220;-65
2022/07/25 02:26:54;;;;;;;394.93;205.20;;;;;;;;;;5002448;28;20221;-65
2022/07/25 02:29:20;;;;;;;453.58;225.82;;;;;;;;;;5000560;28;20244;-65
2022/07/25 02:31:46;;;;;;;379.53;199.80;;;;;;;;;;5000203;28;22285;-65
2022/07/25 02:34:12;;;;;;;360.80;190.05;;;;;;;;;;5003421;28;20212;-65
2022/07/25 02:36:38;;;;;;;373.05;195.77;;;;;;;;;;4998215;28;20701;-65
2022/07/25 02:39:05;;;;;;;380.80;199.10;;;;;;;;;;5001205;28;20221;-65
2022/07/25 02:41:31;;;;;;;399.27;205.57;;;;;;;;;;5000576;28;20304;-65
2022/07/25 02:43:57;;;;;;;392.37;206.47;;;;;;;;;;4999343;28;20184;-65
2022/07/25 02:46:23;;;;;;;388.15;199.27;;;;;;;;;;4999912;28;20199;-67
2022/07/25 02:48:49;;;;;;;409.63;217.17;;;;;;;;;;5002792;28;20678;-65
2022/07/25 02:51:17;;;;;;;369.00;194.27;;;;;;;;;;5003117;28;20221;-65
2022/07/25 02:53:43;;;;;;;359.85;193.55;;;;;;;;;;5014657;28;20294;-65
2022/07/25 02:56:09;;;;;;;402.30;212.07;;;;;;;;;;4999751;28;20217;-66
2022/07/25 02:58:35;;;;;;;374.90;200.13;;;;;;;;;;5002773;28;20184;-65
2022/07/25 03:01:01;;;;;;;366.93;194.33;;;;;;;;;;5003859;28;20571;-65
2022/07/25 03:03:27;;;;;;;436.03;228.03;;;;;;;;;;5000694;28;20213;-65
2022/07/25 03:05:53;;;;;;;406.23;210.47;;;;;;;;;;5000602;28;20228;-65
2022/07/25 03:08:19;;;;;;;361.73;190.10;;;;;;;;;;4999548;28;20571;-65
2022/07/25 03:10:45;;;;;;;362.60;190.13;;;;;;;;;;5007810;28;20187;-65
2022/07/25 03:13:10;;;;;;;371.33;189.37;;;;;;;;;;5003359;28;20220;-65
2022/07/25 03:15:36;;;;;;;455.63;230.00;;;;;;;;;;4999025;28;20220;-65
2022/07/25 03:18:02;;;;;;;374.25;194.70;;;;;;;;;;5007480;28;20220;-65
2022/07/25 03:20:28;;;;;;;383.33;199.20;;;;;;;;;;5007116;28;20215;-65
2022/07/25 03:22:54;;;;;;;387.07;202.90;;;;;;;;;;5002330;28;20205;-65
2022/07/25 03:25:20;;;;;;;376.93;195.20;;;;;;;;;;5001517;28;20232;-65
2022/07/25 03:27:46;;;;;;;366.17;192.53;;;;;;;;;;5005165;28;20209;-65
2022/07/25 03:30:12;;;;;;;394.13;197.30;;;;;;;;;;5001784;28;20225;-65
2022/07/25 03:32:38;;;;;;;338.40;176.60;;;;;;;;;;5003215;28;20232;-65
2022/07/25 03:35:04;;;;;;;360.87;190.27;;;;;;;;;;4998903;28;20181;-65
2022/07/25 03:37:30;;;;;;;357.17;183.73;;;;;;;;;;5002666;28;20182;-65
2022/07/25 03:39:56;;;;;;;410.37;214.17;;;;;;;;;;5004558;28;20224;-65
2022/07/25 03:42:23;;;;;;;395.53;202.10;;;;;;;;;;5002966;28;20239;-65
2022/07/25 03:44:48;;;;;;;385.23;200.00;;;;;;;;;;5002686;28;20213;-65
2022/07/25 03:47:14;;;;;;;401.50;202.73;;;;;;;;;;5002553;28;20322;-65
2022/07/25 03:49:40;;;;;;;417.90;216.80;;;;;;;;;;4999336;28;20223;-65
2022/07/25 03:52:06;;;;;;;381.03;195.00;;;;;;;;;;5003817;28;20216;-65
2022/07/25 03:54:32;;;;;;;388.20;196.23;;;;;;;;;;5007390;28;20216;-65
2022/07/25 03:56:58;;;;;;;374.85;195.63;;;;;;;;;;5004411;28;20590;-65
2022/07/25 03:59:24;;;;;;;386.38;195.30;;;;;;;;;;4998833;28;20221;-65
2022/07/25 04:01:50;;;;;;;415.30;212.93;;;;;;;;;;5003145;28;20205;-65
2022/07/25 04:04:17;;;;;;;373.83;189.17;;;;;;;;;;5005920;28;20547;-65
2022/07/25 04:06:44;;;;;;;426.67;215.23;;;;;;;;;;5001822;28;20217;-65
2022/07/25 04:09:10;;;;;;;352.97;181.60;;;;;;;;;;5002481;28;20225;-65
2022/07/25 04:11:37;;;;;;;388.83;204.77;;;;;;;;;;5001633;28;20225;-65
2022/07/25 04:14:03;;;;;;;400.90;209.50;;;;;;;;;;4998748;28;20667;-65
2022/07/25 04:16:29;;;;;;;384.43;200.67;;;;;;;;;;5002351;28;20840;-65
2022/07/25 04:18:56;;;;;;;372.83;192.20;;;;;;;;;;5010267;28;20221;-65
2022/07/25 04:21:22;;;;;;;404.37;206.20;;;;;;;;;;4999765;28;20248;-65
2022/07/25 04:23:48;;;;;;;412.75;214.05;;;;;;;;;;4999574;28;21099;-65
2022/07/25 04:26:14;;;;;;;361.87;195.37;;;;;;;;;;5006524;28;20228;-65
2022/07/25 04:28:39;;;;;;;387.20;209.33;;;;;;;;;;4998747;28;20181;-65
2022/07/25 04:31:05;;;;;;;358.93;193.53;;;;;;;;;;5004100;28;20574;-65
2022/07/25 04:33:31;;;;;;;356.07;192.13;;;;;;;;;;5003652;28;20683;-65
2022/07/25 04:35:57;;;;;;;392.47;208.77;;;;;;;;;;5001203;28;20228;-65
2022/07/25 04:38:23;;;;;;;474.50;246.57;;;;;;;;;;4996499;28;20223;-65
2022/07/25 04:40:49;;;;;;;400.37;213.77;;;;;;;;;;4998069;28;20526;-65
2022/07/25 04:43:15;;;;;;;410.52;212.75;;;;;;;;;;5000208;28;20523;-65
2022/07/25 04:45:41;;;;;;;472.00;247.27;;;;;;;;;;4998803;28;20702;-65
2022/07/25 04:48:08;;;;;;;350.67;187.33;;;;;;;;;;4999465;28;20212;-65
2022/07/25 04:50:34;;;;;;;352.58;184.15;;;;;;;;;;5003180;28;20706;-65
2022/07/25 04:53:00;;;;;;;376.33;198.80;;;;;;;;;;5003003;28;20185;-65
2022/07/25 04:55:26;;;;;;;389.13;199.87;;;;;;;;;;4998095;28;20619;-65
2022/07/25 04:57:51;;;;;;;387.87;199.47;;;;;;;;;;5007728;28;20216;-65
2022/07/25 05:00:17;;;;;;;370.43;194.80;;;;;;;;;;5000935;28;20714;-65
2022/07/25 05:02:43;;;;;;;357.45;185.88;;;;;;;;;;5004568;28;20683;-65
2022/07/25 05:05:09;;;;;;;374.10;197.80;;;;;;;;;;4999926;28;20279;-65
2022/07/25 05:07:36;;;;;;;357.80;186.30;;;;;;;;;;5003176;28;20177;-65
2022/07/25 05:10:02;;;;;;;388.25;203.75;;;;;;;;;;5005507;28;21100;-65
2022/07/25 05:12:28;;;;;;;364.42;189.70;;;;;;;;;;4999675;28;20232;-65
2022/07/25 05:14:54;;;;;;;382.63;200.10;;;;;;;;;;4999290;28;20220;-64
2022/07/25 05:17:20;;;;;;;354.38;180.35;;;;;;;;;;4997890;28;20225;-65
2022/07/25 05:19:46;;;;;;;354.83;185.47;;;;;;;;;;5005826;28;20170;-65
2022/07/25 05:22:12;;;;;;;367.00;192.20;;;;;;;;;;5008536;28;20224;-65
2022/07/25 05:24:38;;;;;;;370.90;196.87;;;;;;;;;;5006375;28;20225;-65
2022/07/25 05:27:04;;;;;;;339.08;178.55;;;;;;;;;;5007029;28;20220;-66
2022/07/25 05:29:31;;;;;;;387.73;203.30;;;;;;;;;;4999471;28;20224;-68
2022/07/25 05:31:57;;;;;;;436.05;238.98;;;;;;;;;;4989707;28;20196;-68
2022/07/25 05:34:23;;;;;;;408.70;217.23;;;;;;;;;;4996917;28;20627;-65
2022/07/25 05:36:49;;;;;;;379.80;211.35;;;;;;;;;;5011546;28;20217;-66
2022/07/25 05:39:15;;;;;;;387.75;211.55;;;;;;;;;;4995490;28;20220;-69
2022/07/25 05:41:41;;;;;;;388.92;214.57;;;;;;;;;;4997822;28;20328;-72
2022/07/25 05:44:07;;;;;;;381.70;197.80;;;;;;;;;;4997469;28;20570;-70
2022/07/25 05:46:34;;;;;;;397.75;216.52;;;;;;;;;;5000075;28;20181;-71
2022/07/25 05:49:00;;;;;;;451.67;240.40;;;;;;;;;;4999681;28;20220;-72
2022/07/25 05:51:26;;;;;;;433.30;235.30;;;;;;;;;;4971032;28;20390;-73
2022/07/25 05:53:52;;;;;;;366.30;198.25;;;;;;;;;;4997518;28;20220;-69
2022/07/25 05:56:18;;;;;;;423.15;224.55;;;;;;;;;;4993937;28;20227;-70
2022/07/25 05:58:44;;;;;;;401.90;222.07;;;;;;;;;;5004831;28;20209;-69
2022/07/25 06:01:13;;;;;;;412.58;226.20;;;;;;;;;;4998699;28;20221;-72
2022/07/25 06:03:39;;;;;;;397.80;220.88;;;;;;;;;;4996896;28;20213;-71
2022/07/25 06:06:07;;;;;;;369.20;206.45;;;;;;;;;;5002061;28;20546;-71
2022/07/25 06:08:33;;;;;;;349.55;198.75;;;;;;;;;;5008167;28;20239;-70
2022/07/25 06:10:59;;;;;;;390.20;219.85;;;;;;;;;;5002463;28;20658;-72
2022/07/25 06:13:28;;;;;;;402.23;224.32;;;;;;;;;;5009057;28;20188;-70
2022/07/25 06:15:54;;;;;;;424.77;227.07;;;;;;;;;;4996609;28;20229;-70
2022/07/25 06:18:20;;;;;;;375.92;199.88;;;;;;;;;;4996330;28;20220;-68
2022/07/25 06:20:46;;;;;;;381.55;206.25;;;;;;;;;;4998866;28;20217;-67
2022/07/25 06:23:12;;;;;;;333.63;196.75;;;;;;;;;;4999191;28;20216;-67
2022/07/25 06:25:38;;;;;;;420.25;234.35;;;;;;;;;;5009235;28;20189;-66
2022/07/25 06:28:04;;;;;;;361.40;209.23;;;;;;;;;;5010890;28;20697;-66
2022/07/25 06:30:30;;;;;;;340.98;198.18;;;;;;;;;;5008208;28;20231;-66
2022/07/25 06:32:55;;;;;;;370.55;215.05;;;;;;;;;;5008053;28;20567;-71
2022/07/25 06:35:21;;;;;;;392.40;226.13;;;;;;;;;;5007058;28;20223;-70
2022/07/25 06:37:47;;;;;;;393.60;229.57;;;;;;;;;;5005507;28;20180;-71
2022/07/25 06:40:14;;;;;;;406.10;237.23;;;;;;;;;;4999781;28;20185;-69
2022/07/25 06:42:40;;;;;;;370.63;217.93;;;;;;;;;;5009016;28;20212;-73
2022/07/25 06:45:11;;;;;;;399.15;230.52;;;;;;;;;;5000582;28;22207;-69
2022/07/25 06:47:37;;;;;;;348.88;211.52;;;;;;;;;;5019393;28;20216;-70
2022/07/25 06:50:06;;;;;;;383.77;227.82;;;;;;;;;;5011256;28;20639;-70
2022/07/25 06:52:32;;;;;;;429.67;247.32;;;;;;;;;;5005733;28;20196;-68
2022/07/25 06:54:58;;;;;;;443.35;249.25;;;;;;;;;;4994763;28;20680;-70
2022/07/25 06:57:24;;;;;;;436.90;241.65;;;;;;;;;;5000362;28;20246;-73
2022/07/25 06:59:50;;;;;;;498.42;288.10;;;;;;;;;;5000488;28;20294;-60
2022/07/25 07:02:16;;;;;;;452.42;255.30;;;;;;;;;;4988752;28;20694;-62
2022/07/25 07:04:42;;;;;;;387.63;238.05;;;;;;;;;;5008542;28;20496;-60
2022/07/25 07:07:08;;;;;;;411.65;246.48;;;;;;;;;;4996849;28;20875;-61
2022/07/25 07:09:34;;;;;;;415.75;248.80;;;;;;;;;;5007121;28;20814;-60
2022/07/25 07:12:00;;;;;;;422.77;252.25;;;;;;;;;;5003177;28;20217;-61
2022/07/25 07:14:26;;;;;;;435.40;253.10;;;;;;;;;;4998455;28;20216;-62
2022/07/25 07:16:52;;;;;;;489.52;291.02;;;;;;;;;;5014302;28;20189;-61
2022/07/25 07:19:18;;;;;;;438.88;265.88;;;;;;;;;;4995297;28;20177;-61
2022/07/25 07:21:44;;;;;;;416.95;257.52;;;;;;;;;;5002274;28;20225;-60
2022/07/25 07:24:10;;;;;;;352.02;231.27;;;;;;;;;;4996169;28;20221;-61
2022/07/25 07:26:36;;;;;;;471.40;284.90;;;;;;;;;;4993393;28;20229;-60
2022/07/25 07:29:03;;;;;;;422.13;265.00;;;;;;;;;;4990140;28;20184;-60
2022/07/25 07:31:29;;;;;;;487.25;301.30;;;;;;;;;;4995432;28;20275;-61
2022/07/25 07:33:55;;;;;;;411.38;264.58;;;;;;;;;;5002777;28;20224;-62
2022/07/25 07:36:21;;;;;;;479.98;302.40;;;;;;;;;;4995943;28;20228;-62
2022/07/25 07:38:47;;;;;;;461.08;287.23;;;;;;;;;;4989587;28;20267;-60
2022/07/25 07:41:13;;;;;;;377.05;250.77;;;;;;;;;;5002571;28;20221;-61
2022/07/25 07:43:39;;;;;;;424.95;273.00;;;;;;;;;;5000019;28;20193;-61
2022/07/25 07:46:05;;;;;;;394.90;255.60;;;;;;;;;;4996799;28;20221;-60
2022/07/25 07:48:32;;;;;;;412.33;264.25;;;;;;;;;;4990501;28;20268;-61
2022/07/25 07:50:58;;;;;;;404.13;263.13;;;;;;;;;;4999708;28;20217;-61
2022/07/25 07:56:09;;;;;;;397.17;260.13;;;;;;;;;;5005455;28;20236;-60
2022/07/25 07:58:36;;;;;;;360.80;240.80;;;;;;;;;;4999004;28;20173;-61
2022/07/25 08:01:02;;;;;;;546.75;327.83;;;;;;;;;;4993692;28;20228;-61
2022/07/25 08:03:28;;;;;;;405.90;261.98;;;;;;;;;;5002072;28;20221;-61
2022/07/25 08:05:54;;;;;;;517.90;331.35;;;;;;;;;;4997868;28;20287;-59
2022/07/25 08:08:20;;;;;;;438.45;285.88;;;;;;;;;;4996634;28;20532;-60
2022/07/25 08:10:47;;;;;;;405.52;270.50;;;;;;;;;;4992524;28;20185;-60
2022/07/25 08:13:14;;;;;;;443.30;286.33;;;;;;;;;;4994291;28;20221;-60
2022/07/25 08:15:40;;;;;;;469.10;313.20;;;;;;;;;;4994670;28;20232;-60
2022/07/25 08:18:07;;;;;;;383.08;264.25;;;;;;;;;;4994515;28;20278;-60
2022/07/25 08:20:33;;;;;;;430.90;295.77;;;;;;;;;;4997864;28;20220;-61
2022/07/25 08:22:58;;;;;;;442.15;305.85;;;;;;;;;;4999374;28;20295;-61
2022/07/25 08:25:24;;;;;;;442.75;302.23;;;;;;;;;;4993081;28;20199;-61
2022/07/25 08:27:52;;;;;;;475.02;318.30;;;;;;;;;;4997441;28;20225;-61
2022/07/25 08:30:18;;;;;;;421.05;293.73;;;;;;;;;;5004870;28;20221;-61
2022/07/25 08:32:51;;;;;;;410.92;293.38;;;;;;;;;;4998588;28;20224;-60
2022/07/25 08:35:18;;;;;;;384.02;278.35;;;;;;;;;;5002856;28;20217;-61
2022/07/25 08:37:44;;;;;;;407.88;286.70;;;;;;;;;;5010531;28;20232;-61
2022/07/25 08:40:12;;;;;;;402.83;279.35;;;;;;;;;;5005624;28;20223;-61
2022/07/25 08:42:38;;;;;;;396.10;272.33;;;;;;;;;;5002768;28;20232;-61
2022/07/25 08:45:05;;;;;;;372.85;260.90;;;;;;;;;;5007107;28;20638;-61
2022/07/25 08:47:31;;;;;;;378.83;271.15;;;;;;;;;;5003800;28;20228;-61
2022/07/25 08:49:57;;;;;;;400.20;278.15;;;;;;;;;;5008731;28;20212;-62
2022/07/25 08:52:23;;;;;;;368.38;259.88;;;;;;;;;;5010114;28;20200;-61
2022/07/25 08:54:50;;;;;;;389.52;277.90;;;;;;;;;;5010830;28;20213;-62
2022/07/25 08:57:16;;;;;;;468.90;305.40;;;;;;;;;;5005061;28;20217;-62
2022/07/25 08:59:42;;;;;;;365.10;253.73;;;;;;;;;;5005744;28;20213;-63
2022/07/25 09:02:12;;;;;;;384.65;270.65;;;;;;;;;;4997854;28;20234;-61
2022/07/25 09:04:38;;;;;;;356.05;257.33;;;;;;;;;;5012806;28;20177;-61
2022/07/25 09:07:04;;;;;;;370.85;266.23;;;;;;;;;;5009871;28;20792;-61
2022/07/25 09:09:31;;;;;;;439.25;300.23;;;;;;;;;;5011397;28;20220;-60
2022/07/25 09:11:57;;;;;;;421.35;296.30;;;;;;;;;;5002615;28;20212;-61
2022/07/25 09:14:23;;;;;;;386.13;274.88;;;;;;;;;;5003627;28;20998;-61
2022/07/25 09:16:49;;;;;;;453.00;318.02;;;;;;;;;;5001724;28;20675;-60
2022/07/25 09:19:19;;;;;;;393.67;290.73;;;;;;;;;;5006589;28;20170;-61
2022/07/25 09:21:56;;;;;;;410.17;300.95;;;;;;;;;;5002476;28;20229;-61
2022/07/25 09:24:22;;;;;;;413.17;298.00;;;;;;;;;;5009493;28;20243;-61
2022/07/25 09:26:50;;;;;;;494.88;346.40;;;;;;;;;;5003621;28;20667;-61
2022/07/25 09:29:20;;;;;;;373.25;276.52;;;;;;;;;;4999760;28;20678;-62
2022/07/25 09:31:47;;;;;;;422.00;300.95;;;;;;;;;;4994050;28;20204;-60
2022/07/25 09:34:16;;;;;;;454.10;314.00;;;;;;;;;;4996088;28;20212;-60
2022/07/25 09:36:54;;;;;;;413.08;297.10;;;;;;;;;;5000064;28;20228;-60
2022/07/25 09:39:20;;;;;;;488.52;335.70;;;;;;;;;;4995798;28;20761;-61
2022/07/25 09:41:48;;;;;;;376.70;283.85;;;;;;;;;;4998358;28;20225;-62
2022/07/25 09:44:17;;;;;;;433.63;308.73;;;;;;;;;;4997678;28;20221;-62
2022/07/25 09:46:43;;;;;;;419.98;298.67;;;;;;;;;;4991368;28;20184;-70
2022/07/25 09:49:13;;;;;;;398.52;288.40;;;;;;;;;;5002935;28;20224;-70
2022/07/25 09:51:39;;;;;;;362.70;276.63;;;;;;;;;;4997442;28;20228;-71
2022/07/25 09:54:05;;;;;;;361.13;275.55;;;;;;;;;;5007559;28;20220;-71
2022/07/25 09:56:31;;;;;;;384.48;290.40;;;;;;;;;;5009836;28;20299;-71
2022/07/25 09:58:57;;;;;;;443.17;322.58;;;;;;;;;;5010437;28;20189;-71
2022/07/25 10:01:27;;;;;;;402.02;294.48;;;;;;;;;;5008034;28;20201;-70
2022/07/25 10:04:03;;;;;;;395.48;298.20;;;;;;;;;;5009717;28;20742;-71
2022/07/25 10:06:48;;;;;;;389.88;297.77;;;;;;;;;;5010871;28;20235;-71
2022/07/25 10:09:15;;;;;;;376.55;287.35;;;;;;;;;;5009420;28;20629;-70
2022/07/25 10:12:01;;;;;;;365.08;282.95;;;;;;;;;;5008592;28;20224;-70
2022/07/25 10:14:26;;;;;;;354.50;281.55;;;;;;;;;;5026758;28;20216;-71
2022/07/25 10:16:52;;;;;;;389.77;329.63;;;;;;;;;;5003026;28;20195;-71
2022/07/25 10:19:34;;;;;;;496.88;375.52;;;;;;;;;;4995057;28;20169;-69
2022/07/25 10:22:00;;;;;;;465.92;351.92;;;;;;;;;;4981033;28;20224;-62
2022/07/25 10:24:33;;;;;;;466.98;342.77;;;;;;;;;;4995786;28;20223;-64
2022/07/25 10:27:06;;;;;;;420.67;335.30;;;;;;;;;;5000059;28;20212;-63
2022/07/25 10:29:33;;;;;;;441.65;332.35;;;;;;;;;;4995761;28;20217;-63
2022/07/25 10:32:05;;;;;;;469.33;347.42;;;;;;;;;;4989098;28;20646;-63
2022/07/25 10:34:31;;;;;;;457.95;339.15;;;;;;;;;;4992839;28;20180;-63
2022/07/25 10:37:08;;;;;;;388.10;320.77;;;;;;;;;;4998132;28;20224;-63
2022/07/25 10:39:41;;;;;;;394.13;309.42;;;;;;;;;;5003209;28;20899;-64
2022/07/25 10:42:07;;;;;;;391.10;311.13;;;;;;;;;;5002308;28;20246;-63
2022/07/25 10:44:40;;;;;;;393.38;318.17;;;;;;;;;;4995769;28;20232;-63
2022/07/25 10:47:08;;;;;;;360.45;306.35;;;;;;;;;;5000609;28;20193;-63
2022/07/25 10:49:39;;;;;;;391.40;320.38;;;;;;;;;;5000088;28;20205;-63
2022/07/25 10:52:05;;;;;;;390.73;317.02;;;;;;;;;;4991685;28;20221;-62
2022/07/25 10:54:35;;;;;;;426.50;337.67;;;;;;;;;;4999458;28;20225;-63
2022/07/25 10:57:01;;;;;;;442.38;346.23;;;;;;;;;;4987830;28;20228;-61
2022/07/25 10:59:30;;;;;;;410.42;331.25;;;;;;;;;;5001944;28;20271;-63
2022/07/25 11:01:56;;;;;;;433.77;341.70;;;;;;;;;;4995889;28;20208;-61
2022/07/25 11:04:23;;;;;;;427.05;341.63;;;;;;;;;;5015465;28;20832;-62
2022/07/25 11:06:49;;;;;;;421.45;340.48;;;;;;;;;;5003620;28;20221;-62
2022/07/25 11:09:19;;;;;;;438.85;345.42;;;;;;;;;;4994506;28;20228;-62
2022/07/25 11:11:50;;;;;;;461.80;362.13;;;;;;;;;;4991690;28;20251;-62
2022/07/25 11:14:16;;;;;;;499.67;375.40;;;;;;;;;;4994430;28;20279;-63
2022/07/25 11:16:43;;;;;;;378.33;317.45;;;;;;;;;;4998553;28;20181;-62
2022/07/25 11:19:20;;;;;;;445.65;349.75;;;;;;;;;;4998469;28;20228;-63
2022/07/25 11:21:47;;;;;;;390.52;322.42;;;;;;;;;;4997894;28;20231;-62
2022/07/25 11:24:13;;;;;;;509.52;386.10;;;;;;;;;;5001961;28;20291;-63
2022/07/25 11:26:45;;;;;;;390.42;322.48;;;;;;;;;;5001018;28;20229;-63
2022/07/25 11:29:27;;;;;;;399.45;327.90;;;;;;;;;;5002465;28;20228;-62
2022/07/25 11:31:58;;;;;;;403.73;343.02;;;;;;;;;;5002831;28;20197;-63
2022/07/25 11:34:25;;;;;;;411.00;341.45;;;;;;;;;;5011942;28;20178;-63
2022/07/25 11:36:54;;;;;;;430.45;346.13;;;;;;;;;;5001713;28;20217;-63
2022/07/25 11:39:20;;;;;;;416.45;339.80;;;;;;;;;;5003234;28;20218;-62
2022/07/25 11:41:46;;;;;;;406.52;347.48;;;;;;;;;;5001258;28;20225;-63
2022/07/25 11:44:12;;;;;;;390.50;338.20;;;;;;;;;;5007250;28;21325;-63
2022/07/25 11:46:43;;;;;;;454.08;363.88;;;;;;;;;;4996796;28;20188;-63
2022/07/25 11:49:09;;;;;;;417.23;347.85;;;;;;;;;;5001468;28;20205;-64
2022/07/25 11:51:38;;;;;;;392.83;334.92;;;;;;;;;;5006265;28;20231;-64
2022/07/25 11:54:08;;;;;;;452.52;363.50;;;;;;;;;;5000342;28;20788;-64
2022/07/25 11:56:37;;;;;;;385.90;340.35;;;;;;;;;;5003351;28;20789;-64
2022/07/25 11:59:03;;;;;;;492.08;383.50;;;;;;;;;;4999317;28;20182;-63
2022/07/25 12:01:36;;;;;;;501.92;400.58;;;;;;;;;;5014325;28;20775;-63
2022/07/25 12:04:13;;;;;;;499.05;390.92;;;;;;;;;;4999363;28;20217;-63
2022/07/25 12:06:39;;;;;;;387.80;330.17;;;;;;;;;;5006360;28;20213;-64
2022/07/25 12:09:13;;;;;;;418.20;349.08;;;;;;;;;;5009256;28;20217;-63
2022/07/25 12:11:39;;;;;;;398.10;350.88;;;;;;;;;;5004601;28;20322;-63
2022/07/25 12:14:06;;;;;;;400.17;349.00;;;;;;;;;;5004966;28;20546;-64
2022/07/25 12:16:32;;;;;;;465.92;379.02;;;;;;;;;;5004983;28;20651;-64
2022/07/25 12:18:58;;;;;;;451.83;385.50;;;;;;;;;;5006946;28;20210;-64
2022/07/25 12:21:25;;;;;;;396.00;352.48;;;;;;;;;;5004908;28;20224;-64
2022/07/25 12:23:51;;;;;;;447.08;375.90;;;;;;;;;;5007411;28;20240;-64
2022/07/25 12:26:17;;;;;;;396.00;350.58;;;;;;;;;;4994473;28;20320;-76
2022/07/25 12:28:43;;;;;;;431.73;382.13;;;;;;;;;;5004387;28;20169;-70
2022/07/25 12:31:09;;;;;;;453.92;394.10;;;;;;;;;;4999668;28;20908;-74
2022/07/25 12:33:35;;;;;;;392.70;351.95;;;;;;;;;;5001687;28;20217;-73
2022/07/25 12:36:01;;;;;;;459.65;392.17;;;;;;;;;;5006030;28;20206;-76
2022/07/25 12:38:27;;;;;;;444.85;384.20;;;;;;;;;;5003162;28;20219;-73
2022/07/25 12:40:54;;;;;;;422.92;378.10;;;;;;;;;;5001757;28;20177;-73
2022/07/25 12:43:20;;;;;;;406.77;363.42;;;;;;;;;;5016398;28;20193;-74
2022/07/25 12:45:46;;;;;;;426.42;380.33;;;;;;;;;;5009984;28;20227;-75
2022/07/25 12:48:13;;;;;;;402.60;360.52;;;;;;;;;;5011522;28;20216;-75
2022/07/25 12:50:39;;;;;;;410.77;367.30;;;;;;;;;;5014922;28;20213;-75
2022/07/25 12:53:05;;;;;;;476.70;407.42;;;;;;;;;;5004828;28;20174;-74
2022/07/25 12:55:31;;;;;;;449.02;397.90;;;;;;;;;;5004138;28;20173;-74
2022/07/25 12:57:57;;;;;;;445.75;400.10;;;;;;;;;;5013294;28;20221;-76
2022/07/25 13:00:23;;;;;;;412.23;367.45;;;;;;;;;;5004700;28;20233;-75
2022/07/25 13:02:50;;;;;;;430.58;384.33;;;;;;;;;;4999098;28;20225;-75
2022/07/25 13:05:16;;;;;;;436.75;392.25;;;;;;;;;;5004394;28;20217;-75
2022/07/25 13:07:42;;;;;;;427.38;383.75;;;;;;;;;;5002442;28;20210;-75
2022/07/25 13:10:09;;;;;;;449.92;401.65;;;;;;;;;;4998027;28;20256;-75
2022/07/25 13:12:35;;;;;;;429.02;383.08;;;;;;;;;;5001442;28;20221;-75
2022/07/25 13:15:01;;;;;;;417.70;374.50;;;;;;;;;;5007017;28;20210;-77
2022/07/25 13:17:27;;;;;;;433.08;389.63;;;;;;;;;;5003774;28;20260;-75
2022/07/25 13:19:53;;;;;;;460.40;412.73;;;;;;;;;;5004717;28;20181;-76
2022/07/25 13:22:19;;;;;;;421.63;377.58;;;;;;;;;;5004292;28;20200;-76
2022/07/25 13:24:45;;;;;;;428.58;384.08;;;;;;;;;;5007534;28;20232;-76
2022/07/25 13:27:11;;;;;;;424.92;380.10;;;;;;;;;;5007322;28;20205;-76
2022/07/25 13:29:36;;;;;;;526.40;446.92;;;;;;;;;;5007709;28;20213;-76
2022/07/25 13:32:03;;;;;;;488.67;435.33;;;;;;;;;;5001813;28;20208;-76
2022/07/25 13:34:29;;;;;;;458.30;410.48;;;;;;;;;;5003193;28;20181;-76
2022/07/25 13:36:55;;;;;;;466.98;418.92;;;;;;;;;;5002755;28;20208;-75
2022/07/25 13:39:21;;;;;;;484.40;433.40;;;;;;;;;;5001945;28;20225;-76
2022/07/25 13:41:48;;;;;;;470.80;422.65;;;;;;;;;;4999193;28;20318;-76
2022/07/25 13:44:14;;;;;;;454.45;408.40;;;;;;;;;;5003918;28;20217;-76
2022/07/25 13:46:40;;;;;;;473.90;423.60;;;;;;;;;;5001965;28;20799;-76
2022/07/25 13:49:06;;;;;;;458.65;412.25;;;;;;;;;;5001918;28;20552;-76
2022/07/25 13:51:32;;;;;;;470.58;425.55;;;;;;;;;;5000087;28;20232;-76